createdAt,value
2018-01-30T00:01:56.490Z,6.40
2018-01-30T00:04:24.763Z,6.30
2018-01-30T00:06:52.330Z,6.30
2018-01-30T00:09:19.798Z,6.30
2018-01-30T00:11:47.378Z,6.20
2018-01-30T00:14:14.950Z,6.20
2018-01-30T00:16:42.420Z,6.20
2018-01-30T00:19:09.907Z,6.20
2018-01-30T00:21:38.150Z,6.10
2018-01-30T00:24:05.639Z,6.00
2018-01-30T00:26:33.136Z,6.00
2018-01-30T00:29:01.392Z,6.00
2018-01-30T00:31:28.862Z,5.90
2018-01-30T00:33:57.858Z,5.90
2018-01-30T00:36:25.342Z,5.90
2018-01-30T00:38:52.853Z,5.90
2018-01-30T00:41:20.342Z,5.90
2018-01-30T00:43:47.900Z,5.90
2018-01-30T00:46:15.375Z,5.90
2018-01-30T00:48:42.860Z,5.90
2018-01-30T00:51:10.409Z,5.90
2018-01-30T00:53:38.676Z,5.80
2018-01-30T00:56:06.963Z,5.80
2018-01-30T00:58:34.531Z,5.80
2018-01-30T01:01:02.065Z,5.80
2018-01-30T01:03:29.559Z,5.80
2018-01-30T01:05:57.031Z,5.80
2018-01-30T01:08:24.641Z,5.80
2018-01-30T01:10:52.139Z,5.80
2018-01-30T01:13:19.614Z,5.80
2018-01-30T01:15:47.155Z,5.70
2018-01-30T01:18:14.697Z,5.70
2018-01-30T01:20:42.266Z,5.70
2018-01-30T01:23:09.849Z,5.70
2018-01-30T01:25:37.523Z,5.60
2018-01-30T01:28:05.770Z,5.50
2018-01-30T01:30:33.287Z,5.50
2018-01-30T01:33:01.572Z,5.50
2018-01-30T01:35:29.818Z,5.50
2018-01-30T01:37:57.296Z,5.50
2018-01-30T01:40:24.791Z,5.50
2018-01-30T01:42:52.264Z,5.50
2018-01-30T01:45:19.830Z,5.60
2018-01-30T01:47:47.323Z,5.70
2018-01-30T01:50:15.562Z,5.80
2018-01-30T01:52:43.062Z,5.80
2018-01-30T01:55:10.560Z,5.80
2018-01-30T01:57:38.852Z,5.80
2018-01-30T02:00:06.334Z,5.80
2018-01-30T02:02:33.839Z,5.70
2018-01-30T02:05:01.330Z,5.70
2018-01-30T02:07:28.904Z,5.50
2018-01-30T02:09:57.523Z,5.30
2018-01-30T02:12:25.778Z,5.30
2018-01-30T02:14:53.251Z,5.30
2018-01-30T02:17:20.835Z,5.20
2018-01-30T02:19:48.502Z,5.10
2018-01-30T02:22:16.007Z,5.00
2018-01-30T02:24:43.557Z,4.90
2018-01-30T02:27:11.027Z,4.90
2018-01-30T02:29:39.279Z,4.70
2018-01-30T02:32:06.895Z,4.60
2018-01-30T02:34:35.181Z,4.60
2018-01-30T02:37:03.497Z,4.60
2018-01-30T02:39:31.007Z,4.50
2018-01-30T02:41:58.486Z,4.50
2018-01-30T02:44:25.959Z,4.50
2018-01-30T02:46:53.451Z,4.40
2018-01-30T02:49:21.731Z,4.60
2018-01-30T02:51:49.210Z,4.50
2018-01-30T02:54:17.466Z,4.70
2018-01-30T02:56:44.955Z,4.70
2018-01-30T02:59:12.562Z,4.70
2018-01-30T03:01:40.134Z,4.80
2018-01-30T03:04:07.712Z,4.80
2018-01-30T03:06:35.246Z,4.80
2018-01-30T03:09:03.520Z,4.70
2018-01-30T03:11:31.013Z,4.70
2018-01-30T03:13:58.579Z,4.60
2018-01-30T03:16:26.074Z,4.50
2018-01-30T03:18:53.552Z,4.50
2018-01-30T03:21:21.023Z,4.30
2018-01-30T03:23:48.514Z,4.30
2018-01-30T03:26:15.991Z,4.30
2018-01-30T03:28:43.463Z,4.20
2018-01-30T03:31:10.956Z,4.20
2018-01-30T03:33:38.436Z,4.20
2018-01-30T03:36:06.023Z,4.20
2018-01-30T03:38:33.599Z,4.20
2018-01-30T03:41:01.851Z,4.10
2018-01-30T03:43:29.359Z,4.10
2018-01-30T03:45:56.859Z,4.10
2018-01-30T03:48:24.421Z,4.00
2018-01-30T03:50:51.911Z,4.00
2018-01-30T03:53:19.422Z,3.90
2018-01-30T03:55:46.894Z,3.90
2018-01-30T03:58:14.379Z,3.80
2018-01-30T04:00:42.614Z,3.80
2018-01-30T04:03:10.123Z,3.70
2018-01-30T04:05:37.614Z,3.70
2018-01-30T04:08:05.911Z,3.60
2018-01-30T04:10:34.171Z,3.60
2018-01-30T04:13:01.664Z,3.50
2018-01-30T04:15:29.174Z,3.50
2018-01-30T04:17:56.651Z,3.50
2018-01-30T04:20:24.185Z,3.50
2018-01-30T04:22:51.671Z,3.50
2018-01-30T04:25:19.151Z,3.50
2018-01-30T04:27:46.698Z,3.40
2018-01-30T04:30:14.270Z,3.40
2018-01-30T04:32:41.813Z,3.30
2018-01-30T04:35:09.308Z,3.30
2018-01-30T04:37:37.742Z,3.20
2018-01-30T04:40:05.235Z,3.20
2018-01-30T04:42:32.828Z,3.20
2018-01-30T04:45:01.099Z,3.10
2018-01-30T04:47:29.369Z,3.10
2018-01-30T04:49:56.847Z,3.00
2018-01-30T04:52:24.338Z,3.10
2018-01-30T04:54:51.865Z,3.00
2018-01-30T04:57:20.062Z,3.00
2018-01-30T04:59:47.547Z,2.90
2018-01-30T05:02:15.035Z,2.90
2018-01-30T05:04:42.531Z,2.90
2018-01-30T05:07:10.829Z,2.80
2018-01-30T05:09:38.383Z,2.80
2018-01-30T05:12:06.667Z,2.80
2018-01-30T05:14:34.147Z,2.70
2018-01-30T05:17:02.473Z,2.70
2018-01-30T05:19:30.441Z,2.70
2018-01-30T05:21:57.915Z,2.70
2018-01-30T05:24:25.443Z,2.70
2018-01-30T05:26:53.018Z,2.60
2018-01-30T05:29:20.518Z,2.60
2018-01-30T05:31:47.992Z,2.60
2018-01-30T05:34:15.530Z,2.60
2018-01-30T05:36:43.031Z,2.70
2018-01-30T05:39:10.571Z,2.60
2018-01-30T05:41:38.177Z,2.60
2018-01-30T05:44:05.676Z,2.50
2018-01-30T05:46:33.186Z,2.50
2018-01-30T05:49:00.872Z,2.60
2018-01-30T05:51:29.130Z,2.60
2018-01-30T05:53:56.726Z,2.60
2018-01-30T05:56:24.295Z,2.60
2018-01-30T05:58:51.766Z,2.70
2018-01-30T06:01:19.255Z,2.70
2018-01-30T06:03:47.498Z,2.70
2018-01-30T06:06:15.000Z,2.70
2018-01-30T06:08:42.563Z,2.80
2018-01-30T06:11:10.041Z,2.80
2018-01-30T06:13:37.535Z,2.80
2018-01-30T06:16:05.035Z,2.80
2018-01-30T06:18:32.563Z,2.80
2018-01-30T06:21:00.821Z,3.00
2018-01-30T06:23:28.295Z,2.90
2018-01-30T06:25:55.786Z,3.00
2018-01-30T06:28:24.096Z,3.10
2018-01-30T06:30:51.598Z,3.10
2018-01-30T06:33:19.109Z,3.00
2018-01-30T06:35:46.592Z,3.10
2018-01-30T06:38:14.851Z,3.10
2018-01-30T06:40:42.443Z,3.00
2018-01-30T06:43:09.936Z,2.90
2018-01-30T06:45:37.524Z,2.90
2018-01-30T06:48:05.019Z,2.80
2018-01-30T06:50:32.534Z,2.60
2018-01-30T06:53:00.804Z,2.60
2018-01-30T06:55:28.299Z,2.60
2018-01-30T06:57:56.538Z,2.70
2018-01-30T07:00:24.038Z,2.60
2018-01-30T07:02:51.526Z,2.70
2018-01-30T07:05:19.772Z,2.80
2018-01-30T07:07:47.376Z,2.80
2018-01-30T07:10:14.975Z,2.70
2018-01-30T07:12:42.447Z,2.70
2018-01-30T07:15:09.983Z,2.70
2018-01-30T07:17:37.484Z,2.80
2018-01-30T07:20:05.764Z,2.90
2018-01-30T07:22:34.026Z,2.90
2018-01-30T07:25:02.363Z,2.90
2018-01-30T07:27:30.177Z,2.90
2018-01-30T07:29:57.702Z,2.90
2018-01-30T07:32:25.275Z,2.90
2018-01-30T07:34:52.848Z,2.90
2018-01-30T07:37:20.326Z,2.90
2018-01-30T07:39:47.890Z,2.90
2018-01-30T07:42:15.530Z,2.90
2018-01-30T07:44:43.002Z,2.90
2018-01-30T07:47:10.474Z,3.00
2018-01-30T07:49:38.257Z,3.00
2018-01-30T07:52:05.742Z,3.10
2018-01-30T07:54:34.002Z,3.10
2018-01-30T07:57:01.944Z,3.10
2018-01-30T07:59:29.442Z,3.10
2018-01-30T08:01:56.918Z,3.20
2018-01-30T08:04:24.803Z,3.10
2018-01-30T08:06:52.310Z,3.10
2018-01-30T08:09:20.547Z,3.10
2018-01-30T08:11:48.345Z,3.10
2018-01-30T08:14:15.813Z,3.10
2018-01-30T08:16:43.290Z,3.20
2018-01-30T08:19:10.854Z,3.20
2018-01-30T08:21:38.342Z,3.30
2018-01-30T08:24:06.590Z,3.50
2018-01-30T08:26:34.298Z,3.50
2018-01-30T08:29:02.546Z,3.70
2018-01-30T08:31:30.367Z,3.60
2018-01-30T08:33:58.642Z,3.80
2018-01-30T08:36:26.114Z,3.80
2018-01-30T08:38:53.586Z,4.00
2018-01-30T08:41:21.428Z,4.00
2018-01-30T08:43:48.966Z,4.20
2018-01-30T08:46:16.539Z,4.30
2018-01-30T08:48:44.111Z,4.40
2018-01-30T08:51:11.683Z,4.60
2018-01-30T08:53:39.178Z,4.70
2018-01-30T08:56:06.729Z,4.80
2018-01-30T08:58:34.211Z,5.00
2018-01-30T09:01:01.755Z,5.50
2018-01-30T09:03:30.854Z,6.00
2018-01-30T09:05:59.138Z,6.50
2018-01-30T09:08:26.703Z,6.50
2018-01-30T09:10:54.483Z,7.00
2018-01-30T09:13:22.805Z,8.10
2018-01-30T09:15:50.327Z,8.10
2018-01-30T09:18:17.811Z,8.50
2018-01-30T09:20:45.286Z,8.40
2018-01-30T09:23:12.764Z,8.50
2018-01-30T09:25:41.346Z,8.70
2018-01-30T09:28:08.828Z,8.70
2018-01-30T09:30:36.310Z,8.60
2018-01-30T09:33:04.674Z,9.60
2018-01-30T09:35:32.156Z,9.50
2018-01-30T09:38:00.442Z,10.30
2018-01-30T09:40:28.727Z,10.60
2018-01-30T09:42:56.205Z,10.60
2018-01-30T09:45:24.474Z,11.20
2018-01-30T09:47:52.054Z,11.30
2018-01-30T09:50:19.540Z,11.50
2018-01-30T09:52:47.814Z,11.90
2018-01-30T09:55:15.351Z,11.90
2018-01-30T09:57:42.830Z,12.30
2018-01-30T10:00:10.325Z,12.60
2018-01-30T10:02:38.128Z,12.80
2018-01-30T10:05:06.393Z,12.50
2018-01-30T10:07:34.002Z,12.40
2018-01-30T10:10:01.511Z,13.20
2018-01-30T10:12:28.990Z,13.50
2018-01-30T10:14:56.469Z,13.80
2018-01-30T10:17:23.962Z,13.50
2018-01-30T10:19:52.213Z,12.40
2018-01-30T10:22:19.694Z,12.40
2018-01-30T10:24:47.962Z,13.20
2018-01-30T10:27:15.445Z,13.20
2018-01-30T10:29:42.922Z,13.00
2018-01-30T10:32:10.491Z,12.90
2018-01-30T10:34:37.974Z,13.00
2018-01-30T10:37:05.470Z,13.50
2018-01-30T10:39:33.777Z,13.50
2018-01-30T10:42:01.262Z,13.50
2018-01-30T10:44:28.742Z,13.60
2018-01-30T10:46:56.234Z,13.90
2018-01-30T10:49:23.852Z,14.10
2018-01-30T10:51:52.102Z,13.70
2018-01-30T10:54:19.601Z,13.60
2018-01-30T10:56:47.867Z,14.40
2018-01-30T10:59:16.114Z,14.40
2018-01-30T11:01:43.660Z,14.40
2018-01-30T11:04:11.233Z,13.90
2018-01-30T11:06:38.806Z,13.70
2018-01-30T11:09:06.338Z,14.50
2018-01-30T11:11:33.819Z,15.00
2018-01-30T11:14:01.420Z,15.10
2018-01-30T11:16:29.182Z,14.50
2018-01-30T11:18:56.735Z,14.30
2018-01-30T11:21:24.206Z,13.80
2018-01-30T11:23:51.697Z,13.30
2018-01-30T11:26:19.939Z,13.20
2018-01-30T11:28:47.414Z,13.20
2018-01-30T11:31:15.159Z,12.90
2018-01-30T11:33:42.684Z,12.30
2018-01-30T11:36:10.150Z,12.20
2018-01-30T11:38:38.038Z,11.80
2018-01-30T11:41:05.533Z,11.40
2018-01-30T11:43:33.107Z,11.00
2018-01-30T11:46:00.950Z,10.90
2018-01-30T11:48:28.519Z,11.10
2018-01-30T11:50:56.097Z,11.30
2018-01-30T11:53:23.587Z,11.20
2018-01-30T11:55:51.824Z,10.90
2018-01-30T11:58:19.302Z,10.80
2018-01-30T12:00:46.827Z,10.80
2018-01-30T12:03:14.302Z,10.60
2018-01-30T12:05:41.777Z,10.30
2018-01-30T12:08:09.282Z,10.30
2018-01-30T12:10:36.774Z,10.20
2018-01-30T12:13:04.352Z,10.10
2018-01-30T12:15:32.153Z,10.20
2018-01-30T12:17:59.639Z,10.10
2018-01-30T12:20:27.113Z,10.40
2018-01-30T12:22:54.638Z,10.60
2018-01-30T12:25:22.210Z,10.50
2018-01-30T12:27:49.779Z,10.50
2018-01-30T12:30:17.331Z,10.50
2018-01-30T12:32:44.806Z,10.40
2018-01-30T12:35:12.282Z,10.20
2018-01-30T12:37:39.796Z,10.10
2018-01-30T12:40:07.278Z,10.00
2018-01-30T12:42:34.758Z,9.90
2018-01-30T12:45:02.310Z,10.20
2018-01-30T12:47:29.791Z,10.90
2018-01-30T12:49:57.459Z,11.50
2018-01-30T12:52:24.963Z,12.10
2018-01-30T12:54:52.460Z,12.40
2018-01-30T12:57:20.033Z,12.30
2018-01-30T12:59:48.010Z,12.10
2018-01-30T13:02:15.587Z,12.10
2018-01-30T13:04:43.062Z,12.00
2018-01-30T13:07:10.634Z,11.70
2018-01-30T13:09:38.114Z,11.60
2018-01-30T13:12:06.372Z,11.60
2018-01-30T13:14:33.880Z,11.50
2018-01-30T13:17:01.380Z,11.30
2018-01-30T13:19:28.854Z,11.70
2018-01-30T13:21:56.637Z,12.10
2018-01-30T13:24:24.121Z,12.40
2018-01-30T13:26:51.614Z,12.60
2018-01-30T13:29:19.494Z,12.70
2018-01-30T13:31:46.966Z,12.70
2018-01-30T13:34:14.443Z,12.50
2018-01-30T13:36:42.006Z,12.40
2018-01-30T13:39:09.499Z,12.20
2018-01-30T13:41:37.747Z,12.20
2018-01-30T13:44:05.561Z,12.20
2018-01-30T13:46:33.869Z,12.10
2018-01-30T13:49:01.358Z,12.10
2018-01-30T13:51:28.955Z,12.10
2018-01-30T13:53:56.480Z,12.30
2018-01-30T13:56:23.956Z,12.30
2018-01-30T13:58:51.486Z,12.10
2018-01-30T14:01:19.055Z,12.00
2018-01-30T14:03:46.530Z,12.10
2018-01-30T14:06:14.102Z,12.20
2018-01-30T14:08:41.578Z,12.10
2018-01-30T14:11:09.072Z,12.10
2018-01-30T14:13:38.250Z,11.80
2018-01-30T14:16:06.560Z,11.40
2018-01-30T14:18:34.834Z,11.30
2018-01-30T14:21:02.336Z,11.30
2018-01-30T14:23:29.826Z,11.40
2018-01-30T14:25:57.346Z,11.40
2018-01-30T14:28:25.219Z,11.30
2018-01-30T14:30:52.689Z,11.30
2018-01-30T14:33:20.170Z,11.10
2018-01-30T14:35:47.768Z,10.70
2018-01-30T14:38:15.243Z,10.80
2018-01-30T14:40:44.477Z,10.60
2018-01-30T14:43:11.990Z,10.50
2018-01-30T14:45:39.479Z,10.50
2018-01-30T14:48:07.780Z,10.70
2018-01-30T14:50:36.838Z,10.60
2018-01-30T14:53:04.332Z,10.60
2018-01-30T14:55:32.576Z,10.40
2018-01-30T14:58:00.072Z,10.40
2018-01-30T15:00:27.539Z,10.40
2018-01-30T15:02:55.016Z,10.30
2018-01-30T15:05:22.798Z,10.20
2018-01-30T15:07:50.274Z,10.20
2018-01-30T15:10:17.755Z,10.10
2018-01-30T15:12:45.318Z,10.00
2018-01-30T15:15:12.898Z,9.90
2018-01-30T15:17:40.371Z,9.90
2018-01-30T15:20:07.886Z,9.80
2018-01-30T15:22:35.372Z,9.70
2018-01-30T15:25:02.883Z,9.70
2018-01-30T15:27:31.166Z,9.50
2018-01-30T15:29:59.583Z,9.40
2018-01-30T15:32:27.450Z,9.40
2018-01-30T15:34:55.698Z,9.20
2018-01-30T15:37:24.041Z,9.10
2018-01-30T15:39:51.616Z,9.00
2018-01-30T15:42:19.187Z,8.90
2018-01-30T15:44:46.759Z,8.70
2018-01-30T15:47:14.294Z,8.70
2018-01-30T15:49:41.870Z,8.60
2018-01-30T15:52:09.457Z,8.50
2018-01-30T15:54:37.705Z,8.30
2018-01-30T15:57:06.226Z,8.30
2018-01-30T15:59:33.713Z,8.30
2018-01-30T16:02:01.973Z,8.10
2018-01-30T16:04:29.786Z,8.00
2018-01-30T16:06:58.014Z,7.90
2018-01-30T16:09:25.495Z,7.90
2018-01-30T16:11:53.299Z,7.80
2018-01-30T16:14:21.522Z,7.70
2018-01-30T16:16:49.978Z,7.70
2018-01-30T16:19:17.918Z,7.60
2018-01-30T16:21:45.395Z,7.50
2018-01-30T16:24:12.894Z,7.40
2018-01-30T16:26:40.681Z,7.40
2018-01-30T16:29:08.154Z,7.30
2018-01-30T16:31:36.427Z,7.20
2018-01-30T16:34:04.944Z,7.20
2018-01-30T16:36:33.770Z,7.00
2018-01-30T16:39:02.232Z,6.90
2018-01-30T16:41:30.510Z,6.70
2018-01-30T16:43:59.128Z,6.80
2018-01-30T16:46:27.395Z,6.60
2018-01-30T16:48:54.886Z,6.60
2018-01-30T16:51:23.154Z,6.40
2018-01-30T16:53:50.627Z,6.40
2018-01-30T16:56:19.218Z,6.30
2018-01-30T16:58:46.829Z,6.30
2018-01-30T17:01:15.023Z,6.20
2018-01-30T17:03:42.858Z,6.10
2018-01-30T17:06:10.438Z,6.00
2018-01-30T17:08:37.917Z,6.00
2018-01-30T17:11:06.183Z,5.80
2018-01-30T17:13:33.903Z,5.80
2018-01-30T17:16:01.410Z,5.80
2018-01-30T17:18:29.174Z,5.80
2018-01-30T17:20:56.646Z,5.70
2018-01-30T17:23:24.980Z,5.70
2018-01-30T17:25:53.913Z,5.70
2018-01-30T17:28:22.271Z,5.70
2018-01-30T17:30:49.750Z,5.60
2018-01-30T17:33:17.243Z,5.60
2018-01-30T17:35:44.782Z,5.70
2018-01-30T17:38:12.254Z,5.70
2018-01-30T17:40:39.834Z,5.80
2018-01-30T17:43:07.306Z,5.80
2018-01-30T17:45:35.557Z,5.90
2018-01-30T17:48:03.071Z,5.90
2018-01-30T17:50:31.322Z,6.00
2018-01-30T17:52:58.794Z,6.00
2018-01-30T17:55:26.482Z,5.90
2018-01-30T17:57:54.562Z,5.90
2018-01-30T18:00:22.030Z,5.90
2018-01-30T18:02:50.442Z,5.90
2018-01-30T18:05:17.915Z,6.20
2018-01-30T18:07:46.204Z,6.20
2018-01-30T18:10:15.258Z,6.10
2018-01-30T18:12:45.226Z,6.10
2018-01-30T18:15:13.478Z,6.00
2018-01-30T18:17:40.987Z,5.90
2018-01-30T18:20:08.473Z,5.80
2018-01-30T18:22:36.725Z,5.70
2018-01-30T18:25:05.750Z,5.70
2018-01-30T18:27:33.234Z,5.80
2018-01-30T18:30:01.514Z,5.60
2018-01-30T18:32:29.784Z,5.60
2018-01-30T18:34:57.254Z,5.60
2018-01-30T18:37:24.742Z,5.50
2018-01-30T18:39:52.226Z,5.60
2018-01-30T18:42:21.314Z,5.60
2018-01-30T18:44:48.883Z,5.60
2018-01-30T18:47:16.454Z,5.60
2018-01-30T18:49:43.931Z,5.60
2018-01-30T18:52:11.408Z,5.50
2018-01-30T18:54:38.907Z,5.50
2018-01-30T18:57:06.386Z,5.50
2018-01-30T18:59:34.767Z,5.50
2018-01-30T19:02:04.944Z,5.60
2018-01-30T19:04:32.436Z,5.60
2018-01-30T19:07:00.015Z,5.60
2018-01-30T19:09:29.844Z,5.60
2018-01-30T19:11:57.314Z,5.60
2018-01-30T19:14:24.878Z,5.60
2018-01-30T19:16:53.146Z,5.60
2018-01-30T19:19:21.795Z,5.60
2018-01-30T19:21:50.478Z,5.60
2018-01-30T19:24:18.789Z,5.70
2018-01-30T19:26:46.259Z,5.70
2018-01-30T19:29:14.503Z,5.70
2018-01-30T19:31:41.987Z,5.70
2018-01-30T19:34:09.458Z,5.80
2018-01-30T19:36:37.070Z,5.90
2018-01-30T19:39:45.310Z,5.90
2018-01-30T19:42:16.626Z,6.00
2018-01-30T19:44:44.897Z,6.20
2018-01-30T19:47:12.378Z,6.10
2018-01-30T19:49:39.943Z,6.20
2018-01-30T19:52:08.958Z,6.20
2018-01-30T19:54:36.430Z,6.20
2018-01-30T19:57:03.910Z,6.20
2018-01-30T19:59:32.184Z,5.90
2018-01-30T20:01:59.660Z,5.90
2018-01-30T20:04:30.499Z,5.70
2018-01-30T20:06:58.024Z,5.70
2018-01-30T20:09:26.262Z,5.60
2018-01-30T20:11:53.738Z,5.60
2018-01-30T20:14:22.050Z,5.60
2018-01-30T20:16:50.575Z,5.60
2018-01-30T20:19:18.044Z,5.70
2018-01-30T20:21:47.373Z,5.70
2018-01-30T20:24:14.850Z,5.70
2018-01-30T20:26:44.750Z,5.70
2018-01-30T20:29:13.119Z,5.80
2018-01-30T20:31:40.590Z,5.80
2018-01-30T20:34:08.174Z,5.80
2018-01-30T20:36:35.972Z,5.70
2018-01-30T20:39:03.447Z,5.70
2018-01-30T20:41:31.029Z,5.70
2018-01-30T20:43:58.600Z,5.70
2018-01-30T20:46:26.062Z,5.60
2018-01-30T20:48:54.768Z,5.60
2018-01-30T20:51:23.406Z,5.60
2018-01-30T20:53:50.874Z,5.60
2018-01-30T20:56:18.342Z,5.60
2018-01-30T20:58:46.546Z,5.60
2018-01-30T21:01:14.019Z,5.50
2018-01-30T21:03:41.506Z,5.50
2018-01-30T21:06:09.944Z,5.40
2018-01-30T21:08:37.436Z,5.50
2018-01-30T21:11:04.920Z,5.60
2018-01-30T21:13:32.426Z,5.70
2018-01-30T21:16:00.740Z,5.80
2018-01-30T21:18:29.046Z,5.80
2018-01-30T21:20:56.542Z,5.90
2018-01-30T21:23:24.008Z,5.80
2018-01-30T21:25:52.618Z,5.80
2018-01-30T21:28:20.114Z,5.80
2018-01-30T21:30:49.126Z,5.90
2018-01-30T21:33:17.366Z,5.90
2018-01-30T21:35:46.851Z,5.90
2018-01-30T21:38:14.398Z,5.90
2018-01-30T21:40:41.862Z,6.00
2018-01-30T21:43:10.518Z,6.00
2018-01-30T21:45:38.770Z,6.10
2018-01-30T21:48:07.029Z,6.20
2018-01-30T21:50:34.828Z,6.20
2018-01-30T21:53:02.304Z,6.30
2018-01-30T21:55:30.519Z,6.30
2018-01-30T21:57:58.254Z,6.30
2018-01-30T22:00:25.830Z,6.30
2018-01-30T22:02:53.302Z,6.30
2018-01-30T22:05:20.911Z,6.30
2018-01-30T22:07:48.384Z,6.30
2018-01-30T22:10:15.866Z,6.40
2018-01-30T22:12:43.386Z,6.40
2018-01-30T22:15:11.011Z,6.40
2018-01-30T22:17:38.505Z,6.50
2018-01-30T22:20:06.010Z,6.60
2018-01-30T22:22:33.491Z,6.60
2018-01-30T22:25:00.989Z,6.60
2018-01-30T22:27:28.479Z,6.60
2018-01-30T22:29:56.794Z,6.60
2018-01-30T22:32:24.277Z,6.60
2018-01-30T22:34:51.798Z,6.60
2018-01-30T22:37:19.269Z,6.60
2018-01-30T22:39:46.790Z,6.70
2018-01-30T22:42:14.669Z,6.70
2018-01-30T22:44:42.241Z,6.70
